Winchester, ID

8:44 PM PDT on September 15, 2014 (GMT -0700)
RAWS MISSION CREEK ID US | Change Station
CLOSE
Current Station
Personal Weather Station
Location: Winchester, ID
Elevation: 3411 ft
Nearby Weather Stations

Elev 3411 ft 46.29 °N, 116.69 °W | Updated 41 minutes ago

Clear
Clear
77 °F
Feels Like 77 °F
N
5
Wind Variable Wind from ESE
Gusts 11.0 mph

Today
High -- | Low -- °F
--% Chance of Precip.
Yesterday
High -- | Low -- °F
Precip. -- in
6:24 AM 6:57 PM
Waning Gibbous, 49% visible
Pressure 29.98 in
Visibility 7.0 miles
Clouds Clear
Heat Index 77 °F
Dew Point 29 °F
Humidity 17%
Rainfall 0.00 in
Snow Depth 1 in , 0 in , 0 in
UV 0 out of 12
Pollen 6.70 out of 12
PM2.5 Moderate
Flu Activity Not available.
METAR KGIC 160335Z AUTO 00000KT 7SM CLR 17/00 A2998 RMK AO1 T01730002

More Conditions Fewer Conditions

Pressure 29.98 in
Visibility 7.0 miles
Clouds Clear
Heat Index 77 °F
Dew Point 29 °F
Humidity 17%
Rainfall 0.00 in
Snow Depth 1 in , 0 in , 0 in
UV 0 out of 12
Pollen 6.70 out of 12
PM2.5 Moderate
Flu Activity Not available.
METAR KGIC 160335Z AUTO 00000KT 7SM CLR 17/00 A2998 RMK AO1 T01730002

More Conditions Fewer Conditions

10-Day Weather Forecast

Almanac

Astronomy

Sep. 15, 2014 Rise Set
Actual Time 6:24 AM PDT 6:57 PM PDT
Civil Twilight 5:54 AM PDT 7:27 PM PDT
Nautical Twilight 5:18 AM PDT 8:03 PM PDT
Astronomical Twilight 4:41 AM PDT 8:40 PM PDT
Moon 11:24 PM PDT (9/15) 1:48 PM PDT (9/15)
Length of Visible Light 13h 33m
Length of Day
12h 33m
Tomorrow will be 3m 14s shorter.
Waning Gibbous, 49% of the Moon is Illuminated
Today
Waning Gibbous
Sep 24
New
Oct 1
First Quarter
Oct 8
Full
Oct 15
Last Quarter

Today's Extremes

State Highs State Lows

Community

WunderPhotos

Upload Photos

1,753,693 photos uploaded!

Nearby

Air Quality

  Air Quality AQ Index Pollutant
Yesterday Good
PM2.5
Current Moderate
PM2.5
Monday Moderate
PM2.5
Tuesday Moderate
PM2.5
Wednesday Good
PM2.5

Snow Depth

Station Depth Elevation
Savage Pass 1 in 6170 ft
Schwartz Lake 0 in 8620 ft
Atlanta Summit 0 in 7580 ft
Deadwood Summit 0 in 6860 ft
Mill Creek Summit 1 in 8800 ft

Earthquake Activity

City Distance Mag. Time & Date
No recent earthquake activity has been reported nearby.
Minimum magnitude displayed is 2.5.

Coastal Water Temperatures

Place Temperature
No Stations Reporting

Nearby Weather Stations